Time,TemperatureF,DewpointF,PressureIn,WindDirection,WindDirectionDegrees,WindSpeedMPH,WindSpeedGustMPH,Humidity,HourlyPrecipIn,Conditions,Clouds,dailyrainin,SoftwareType,DateUTC
2013-02-23 00:00:00,64.4,59.5,29.91,North,351,8.0,15.0,84,0.00,,---,0.00,VWS V14.01,2013-02-23 06:00:00,
2013-02-23 00:30:00,64.0,58.4,29.91,North,8,7.0,16.0,82,0.00,,---,0.00,VWS V14.01,2013-02-23 06:30:00,
2013-02-23 01:00:00,63.8,57.5,29.91,NW,308,7.0,16.0,80,0.00,,---,0.00,VWS V14.01,2013-02-23 07:00:00,
2013-02-23 01:30:00,63.7,57.1,29.91,NNW,340,3.0,15.0,79,0.00,,---,0.00,VWS V14.01,2013-02-23 07:30:00,
2013-02-23 02:00:00,63.2,55.5,29.91,NNW,347,7.0,16.0,76,0.00,,---,0.00,VWS V14.01,2013-02-23 08:00:00,
2013-02-23 02:30:00,63.0,54.2,29.91,NNE,23,9.0,14.0,73,0.00,,---,0.00,VWS V14.01,2013-02-23 08:30:00,
2013-02-23 03:00:00,62.6,53.1,29.91,NE,44,5.0,18.0,71,0.00,,---,0.00,VWS V14.01,2013-02-23 09:00:00,
2013-02-23 03:30:00,62.0,51.3,29.91,North,1,5.0,14.0,68,0.00,,---,0.00,VWS V14.01,2013-02-23 09:30:00,
2013-02-23 04:00:00,61.1,49.7,29.91,NNW,342,6.0,14.0,66,0.00,,---,0.00,VWS V14.01,2013-02-23 10:00:00,
2013-02-23 04:30:00,60.6,49.6,29.93,NW,312,5.0,14.0,67,0.00,,---,0.00,VWS V14.01,2013-02-23 10:30:00,
2013-02-23 05:00:00,60.3,49.3,29.94,NNW,335,8.0,13.0,67,0.00,,---,0.00,VWS V14.01,2013-02-23 11:00:00,
2013-02-23 05:30:00,60.2,50.0,29.94,NNW,335,6.0,11.0,69,0.00,,---,0.00,VWS V14.01,2013-02-23 11:30:00,
2013-02-23 06:00:00,59.7,50.7,29.94,ENE,58,5.0,14.0,72,0.00,,---,0.00,VWS V14.01,2013-02-23 12:00:00,
2013-02-23 06:30:00,59.5,49.7,29.96,NNW,347,7.0,10.0,70,0.00,,---,0.00,VWS V14.01,2013-02-23 12:30:00,
2013-02-23 07:00:00,59.2,49.0,29.97,WNW,286,4.0,10.0,69,0.00,,---,0.00,VWS V14.01,2013-02-23 13:00:00,
2013-02-23 07:30:00,59.2,48.7,29.99,NW,315,3.0,12.0,68,0.00,,---,0.00,VWS V14.01,2013-02-23 13:30:00,
2013-02-23 08:00:00,59.5,48.9,30.00,WNW,300,2.0,12.0,68,0.00,,---,0.00,VWS V14.01,2013-02-23 14:00:00,
2013-02-23 08:30:00,60.3,49.7,30.01,WNW,302,3.0,11.0,68,0.00,,---,0.00,VWS V14.01,2013-02-23 14:30:00,
2013-02-23 09:00:00,61.1,50.1,30.02,NNW,342,1.0,10.0,67,0.00,,---,0.00,VWS V14.01,2013-02-23 15:00:00,
2013-02-23 09:30:00,61.6,49.7,30.02,NNW,335,5.0,9.0,65,0.00,,---,0.00,VWS V14.01,2013-02-23 15:30:00,
2013-02-23 10:00:00,63.0,50.2,30.03,NW,313,3.0,9.0,63,0.00,,---,0.00,VWS V14.01,2013-02-23 16:00:00,
2013-02-23 10:30:00,64.1,50.0,30.02,WNW,300,4.0,9.0,60,0.00,,---,0.00,VWS V14.01,2013-02-23 16:30:00,
2013-02-23 11:00:00,66.5,49.8,30.01,WNW,302,9.0,11.0,55,0.00,,---,0.00,VWS V14.01,2013-02-23 17:00:00,
2013-02-23 11:30:00,66.9,50.2,30.00,WNW,285,7.0,12.0,55,0.00,,---,0.00,VWS V14.01,2013-02-23 17:30:00,
2013-02-23 12:00:00,68.7,50.4,29.99,West,275,2.0,11.0,52,0.00,,---,0.00,VWS V14.01,2013-02-23 18:00:00,
2013-02-23 12:30:00,71.0,50.9,29.96,NW,312,2.0,12.0,49,0.00,,---,0.00,VWS V14.01,2013-02-23 18:30:00,
2013-02-23 13:00:00,72.4,52.2,29.94,North,352,9.0,13.0,49,0.00,,---,0.00,VWS V14.01,2013-02-23 19:00:00,
2013-02-23 13:30:00,73.5,52.1,29.92,NNW,338,5.0,15.0,47,0.00,,---,0.00,VWS V14.01,2013-02-23 19:30:00,
2013-02-23 14:00:00,75.4,52.0,29.91,NNW,338,4.0,11.0,44,0.00,,---,0.00,VWS V14.01,2013-02-23 20:00:00,
2013-02-23 14:30:00,76.7,52.5,29.90,NNW,338,4.0,11.0,43,0.00,,---,0.00,VWS V14.01,2013-02-23 20:30:00,
2013-02-23 15:00:00,77.1,52.9,29.88,NNE,22,3.0,9.0,43,0.00,,---,0.00,VWS V14.01,2013-02-23 21:00:00,
2013-02-23 15:30:00,77.0,53.4,29.86,NE,45,5.0,12.0,44,0.00,,---,0.00,VWS V14.01,2013-02-23 21:30:00,
2013-02-23 16:00:00,76.8,52.6,29.86,NNE,22,5.0,13.0,43,0.00,,---,0.00,VWS V14.01,2013-02-23 22:00:00,
2013-02-23 16:30:00,76.1,52.6,29.86,NNE,22,5.0,10.0,44,0.00,,---,0.00,VWS V14.01,2013-02-23 22:30:00,
2013-02-23 17:30:00,70.6,53.7,29.89,NE,46,3.0,9.0,55,0.00,,---,0.00,VWS V14.01,2013-02-23 23:30:00,